createdAt,value
2019-05-03T00:02:41.897Z,11.57
2019-05-03T00:05:32.314Z,11.67
2019-05-03T00:08:06.920Z,12.43
2019-05-03T00:10:37.648Z,12.53
2019-05-03T00:13:07.647Z,13.97
2019-05-03T00:15:52.320Z,14.83
2019-05-03T00:18:22.226Z,14.17
2019-05-03T00:20:52.680Z,13.07
2019-05-03T00:23:22.853Z,15.27
2019-05-03T00:25:52.503Z,15.33
2019-05-03T00:28:21.890Z,16.03
2019-05-03T00:30:52.244Z,15.20
2019-05-03T00:33:22.429Z,15.33
2019-05-03T00:36:11.688Z,14.97
2019-05-03T00:38:41.911Z,14.83
2019-05-03T00:41:12.183Z,15.73
2019-05-03T00:43:42.368Z,15.93
2019-05-03T00:46:12.614Z,15.27
2019-05-03T00:48:43.033Z,14.43
2019-05-03T00:51:14.197Z,15.47
2019-05-03T00:53:43.604Z,14.30
2019-05-03T00:56:13.012Z,14.73
2019-05-03T00:58:53.019Z,13.97
2019-05-03T01:01:24.133Z,15.63
2019-05-03T01:03:53.716Z,14.00
2019-05-03T01:06:23.096Z,15.00
2019-05-03T01:08:53.549Z,15.43
2019-05-03T01:11:24.163Z,15.63
2019-05-03T01:13:53.467Z,15.40
2019-05-03T01:16:23.398Z,15.33
2019-05-03T01:18:52.730Z,15.10
2019-05-03T01:21:26.583Z,14.53
2019-05-03T01:23:55.959Z,13.80
2019-05-03T01:26:25.279Z,12.73
2019-05-03T01:28:54.590Z,12.77
2019-05-03T01:31:25.256Z,12.80
2019-05-03T01:33:54.615Z,13.00
2019-05-03T01:36:23.980Z,12.60
2019-05-03T01:38:54.283Z,12.20
2019-05-03T01:41:24.810Z,13.50
2019-05-03T01:43:54.318Z,13.87
2019-05-03T01:46:23.800Z,13.47
2019-05-03T01:49:12.295Z,12.80
2019-05-03T01:51:58.629Z,13.77
2019-05-03T01:54:28.132Z,12.83
2019-05-03T01:56:59.196Z,14.37
2019-05-03T01:59:28.692Z,13.83
2019-05-03T02:02:12.557Z,14.73
2019-05-03T02:05:06.663Z,14.63
2019-05-03T02:07:36.013Z,13.47
2019-05-03T02:10:05.710Z,13.83
2019-05-03T02:12:35.091Z,14.83
2019-05-03T02:15:04.624Z,13.77
2019-05-03T02:17:33.969Z,13.73
2019-05-03T02:20:03.347Z,13.17
2019-05-03T02:22:32.731Z,13.33
2019-05-03T02:25:02.041Z,12.33
2019-05-03T02:27:32.575Z,11.50
2019-05-03T02:30:03.215Z,11.13
2019-05-03T02:32:33.204Z,11.10
2019-05-03T02:35:02.951Z,11.27
2019-05-03T02:37:33.051Z,10.20
2019-05-03T02:40:04.175Z,9.97
2019-05-03T02:42:35.600Z,9.60
2019-05-03T02:45:06.453Z,10.03
2019-05-03T02:47:47.163Z,9.07
2019-05-03T02:50:19.333Z,9.60
2019-05-03T02:52:48.671Z,8.07
2019-05-03T02:55:18.255Z,7.97
2019-05-03T02:57:56.471Z,7.17
2019-05-03T03:01:02.028Z,6.83
2019-05-03T03:03:32.595Z,7.47
2019-05-03T03:06:06.725Z,5.30
2019-05-03T03:08:37.838Z,5.77
2019-05-03T03:11:09.259Z,5.50
2019-05-03T03:13:39.477Z,5.77
2019-05-03T03:16:09.900Z,5.13
2019-05-03T03:18:40.467Z,5.17
2019-05-03T03:21:16.010Z,5.37
2019-05-03T03:23:56.193Z,5.67
2019-05-03T03:26:39.246Z,4.43
2019-05-03T03:29:05.689Z,5.27
2019-05-03T03:31:51.102Z,4.87
2019-05-03T03:34:27.521Z,4.80
2019-05-03T03:37:04.401Z,5.10
2019-05-03T03:39:26.748Z,5.27
2019-05-03T03:41:57.287Z,6.20
2019-05-03T03:44:27.717Z,6.40
2019-05-03T03:46:58.780Z,6.30
2019-05-03T03:49:29.737Z,6.20
2019-05-03T03:52:00.469Z,6.60
2019-05-03T03:54:35.521Z,6.57
2019-05-03T03:57:08.230Z,6.87
2019-05-03T03:59:37.174Z,5.83
2019-05-03T04:02:06.663Z,6.63
2019-05-03T04:04:36.134Z,7.17
2019-05-03T04:07:06.612Z,7.13
2019-05-03T04:09:36.804Z,7.13
2019-05-03T04:12:06.544Z,6.90
2019-05-03T04:15:07.371Z,8.13
2019-05-03T04:17:58.530Z,8.43
2019-05-03T04:20:35.979Z,8.63
2019-05-03T04:23:05.912Z,8.17
2019-05-03T04:25:38.111Z,8.60
2019-05-03T04:28:09.791Z,7.93
2019-05-03T04:30:39.216Z,8.73
2019-05-03T04:33:08.561Z,9.43
2019-05-03T04:35:37.908Z,8.50
2019-05-03T04:38:07.249Z,9.13
2019-05-03T04:40:36.649Z,8.93
2019-05-03T04:43:06.366Z,9.87
2019-05-03T04:45:36.750Z,10.37
2019-05-03T04:48:06.572Z,9.83
2019-05-03T04:50:39.311Z,10.30
2019-05-03T04:53:08.660Z,10.57
2019-05-03T04:55:41.227Z,9.73
2019-05-03T04:58:10.672Z,10.13
2019-05-03T05:00:39.979Z,9.57
2019-05-03T05:03:09.657Z,10.90
2019-05-03T05:05:39.025Z,6.33
2019-05-03T05:08:08.315Z,4.87
2019-05-03T05:10:37.671Z,3.90
2019-05-03T05:13:06.971Z,3.40
2019-05-03T05:15:37.363Z,3.53
2019-05-03T05:18:22.440Z,3.43
2019-05-03T05:20:59.656Z,3.27
2019-05-03T05:23:32.985Z,3.70
2019-05-03T05:26:16.685Z,3.80
2019-05-03T05:28:54.883Z,3.33
2019-05-03T05:31:25.423Z,3.07
2019-05-03T05:33:54.879Z,2.57
2019-05-03T05:36:24.693Z,3.27
2019-05-03T05:38:55.229Z,2.97
2019-05-03T05:41:24.665Z,3.53
2019-05-03T05:43:55.013Z,3.07
2019-05-03T05:46:26.482Z,3.10
2019-05-03T05:48:56.208Z,2.87
2019-05-03T05:51:27.871Z,2.40
2019-05-03T05:53:59.336Z,2.67
2019-05-03T05:56:54.839Z,2.40
2019-05-03T05:59:29.067Z,2.33
2019-05-03T06:02:01.951Z,2.73
2019-05-03T06:04:34.803Z,2.80
2019-05-03T06:07:25.776Z,2.47
2019-05-03T06:10:21.199Z,2.80
2019-05-03T06:13:05.255Z,2.97
2019-05-03T06:15:49.684Z,2.70
2019-05-03T06:18:25.077Z,3.20
2019-05-03T06:21:04.620Z,3.13
2019-05-03T06:23:39.956Z,3.00
2019-05-03T06:26:26.804Z,3.07
2019-05-03T06:28:57.249Z,2.77
2019-05-03T06:31:38.868Z,2.93
2019-05-03T06:34:08.690Z,2.47
2019-05-03T06:36:40.180Z,2.70
2019-05-03T06:39:11.375Z,2.40
2019-05-03T06:41:41.021Z,3.03
2019-05-03T06:44:14.312Z,2.90
2019-05-03T06:46:45.753Z,3.03
2019-05-03T06:49:16.661Z,2.73
2019-05-03T06:51:49.747Z,2.63
2019-05-03T06:54:20.643Z,4.60
2019-05-03T06:56:48.085Z,2.90
2019-05-03T06:59:24.816Z,2.80
2019-05-03T07:02:16.944Z,3.13
2019-05-03T07:04:48.203Z,2.90
2019-05-03T07:07:44.310Z,3.37
2019-05-03T07:10:29.605Z,3.40
2019-05-03T07:13:01.812Z,2.70
2019-05-03T07:15:31.205Z,2.63
2019-05-03T07:18:05.571Z,2.60
2019-05-03T07:20:46.935Z,2.63
2019-05-03T07:23:16.224Z,3.13
2019-05-03T07:25:45.730Z,2.13
2019-05-03T07:28:15.515Z,2.30
2019-05-03T07:30:46.610Z,2.00
2019-05-03T07:33:29.280Z,1.63
2019-05-03T07:35:58.648Z,1.70
2019-05-03T07:38:30.876Z,1.87
2019-05-03T07:41:00.217Z,1.50
2019-05-03T07:43:30.802Z,1.63
2019-05-03T07:46:00.118Z,1.73
2019-05-03T07:48:32.797Z,1.47
2019-05-03T07:51:02.168Z,1.83
2019-05-03T07:53:34.914Z,1.70
2019-05-03T07:56:15.574Z,1.80
2019-05-03T07:59:00.050Z,1.93
2019-05-03T08:01:28.398Z,1.73
2019-05-03T08:03:59.700Z,1.70
2019-05-03T08:06:29.714Z,1.40
2019-05-03T08:09:01.340Z,1.30
2019-05-03T08:11:30.704Z,1.40
2019-05-03T08:14:01.448Z,1.60
2019-05-03T08:16:30.757Z,1.00
2019-05-03T08:19:00.241Z,1.60
2019-05-03T08:21:30.192Z,1.50
2019-05-03T08:23:59.852Z,1.50
2019-05-03T08:26:29.209Z,1.23
2019-05-03T08:29:14.829Z,1.77
2019-05-03T08:32:05.830Z,1.90
2019-05-03T08:34:53.166Z,1.77
2019-05-03T08:37:28.878Z,1.60
2019-05-03T08:39:58.409Z,1.87
2019-05-03T08:42:27.718Z,1.87
2019-05-03T08:45:20.619Z,1.60
2019-05-03T08:47:49.786Z,1.43
2019-05-03T08:50:21.674Z,1.27
2019-05-03T08:52:51.199Z,1.30
2019-05-03T08:55:21.795Z,1.60
2019-05-03T08:57:54.956Z,1.30
2019-05-03T09:00:27.586Z,1.30
2019-05-03T09:02:57.004Z,1.47
2019-05-03T09:05:26.306Z,1.83
2019-05-03T09:07:55.722Z,2.10
2019-05-03T09:10:36.500Z,1.73
2019-05-03T09:13:10.723Z,1.07
2019-05-03T09:15:40.691Z,1.30
2019-05-03T09:18:10.024Z,1.90
2019-05-03T09:20:39.403Z,1.17
2019-05-03T09:23:10.097Z,1.40
2019-05-03T09:25:39.547Z,1.40
2019-05-03T09:28:10.664Z,1.57
2019-05-03T09:30:40.399Z,1.67
2019-05-03T09:33:09.736Z,1.10
2019-05-03T09:35:39.307Z,1.20
2019-05-03T09:38:08.712Z,1.00
2019-05-03T09:40:40.538Z,1.20
2019-05-03T09:43:09.885Z,1.80
2019-05-03T09:45:41.948Z,1.13
2019-05-03T09:48:11.235Z,1.27
2019-05-03T09:50:40.621Z,1.13
2019-05-03T09:53:09.974Z,1.30
2019-05-03T09:55:40.353Z,1.23
2019-05-03T09:58:09.734Z,1.47
2019-05-03T10:00:39.094Z,1.80
2019-05-03T10:03:08.506Z,1.17
2019-05-03T10:05:37.910Z,1.70
2019-05-03T10:08:07.404Z,1.40
2019-05-03T10:10:54.339Z,1.33
2019-05-03T10:13:27.185Z,1.50
2019-05-03T10:15:56.296Z,1.13
2019-05-03T10:18:25.674Z,1.47
2019-05-03T10:20:56.134Z,1.27
2019-05-03T10:23:38.648Z,1.30
2019-05-03T10:26:08.633Z,1.67
2019-05-03T10:28:38.502Z,1.40
2019-05-03T10:31:08.120Z,1.50
2019-05-03T10:34:05.937Z,1.57
2019-05-03T10:36:35.714Z,1.70
2019-05-03T10:39:06.926Z,1.43
2019-05-03T10:41:36.400Z,1.57
2019-05-03T10:44:06.078Z,1.93
2019-05-03T10:46:37.733Z,1.40
2019-05-03T10:49:07.105Z,1.63
2019-05-03T10:51:40.941Z,1.37
2019-05-03T10:54:10.321Z,1.60
2019-05-03T10:57:01.381Z,1.40
2019-05-03T10:59:35.604Z,1.30
2019-05-03T11:02:18.303Z,1.40
2019-05-03T11:04:50.394Z,2.00
2019-05-03T11:07:20.136Z,1.77
2019-05-03T11:09:55.130Z,1.60
2019-05-03T11:12:25.460Z,1.80
2019-05-03T11:14:54.964Z,1.60
2019-05-03T11:17:25.613Z,1.60
2019-05-03T11:19:56.931Z,1.57
2019-05-03T11:22:26.337Z,1.60
2019-05-03T11:24:55.641Z,1.90
2019-05-03T11:27:42.173Z,1.57
2019-05-03T11:30:15.783Z,1.40
2019-05-03T11:33:07.729Z,1.47
2019-05-03T11:35:58.830Z,1.50
2019-05-03T11:38:30.597Z,1.60
2019-05-03T11:41:01.056Z,1.53
2019-05-03T11:43:30.489Z,1.53
2019-05-03T11:45:59.839Z,1.70
2019-05-03T11:48:29.274Z,1.43
2019-05-03T11:50:58.712Z,1.40
2019-05-03T11:53:28.808Z,1.80
2019-05-03T11:55:59.185Z,1.63
2019-05-03T11:58:29.910Z,1.67
2019-05-03T12:01:16.010Z,1.70
2019-05-03T12:03:45.149Z,2.00
2019-05-03T12:06:15.641Z,2.00
2019-05-03T12:08:45.896Z,1.53
2019-05-03T12:11:15.377Z,1.30
2019-05-03T12:13:45.643Z,2.50
2019-05-03T12:16:24.054Z,1.60
2019-05-03T12:18:53.200Z,1.80
2019-05-03T12:21:22.077Z,1.93
2019-05-03T12:23:52.805Z,1.90
2019-05-03T12:26:24.967Z,2.20
2019-05-03T12:28:53.688Z,1.70
2019-05-03T12:31:36.308Z,1.67
2019-05-03T12:33:55.235Z,1.87
2019-05-03T12:36:25.731Z,1.70
2019-05-03T12:38:55.583Z,1.70
2019-05-03T12:41:25.443Z,1.67
2019-05-03T12:43:55.322Z,1.87
2019-05-03T12:46:26.261Z,1.90
2019-05-03T12:48:55.770Z,2.20
2019-05-03T12:51:29.088Z,2.47
2019-05-03T12:53:58.468Z,2.33
2019-05-03T12:56:32.677Z,1.73
2019-05-03T12:59:05.799Z,2.20
2019-05-03T13:01:55.544Z,2.10
2019-05-03T13:04:29.682Z,2.00
2019-05-03T13:07:11.527Z,1.90
2019-05-03T13:09:42.053Z,1.90
2019-05-03T13:12:14.718Z,1.97
2019-05-03T13:14:45.926Z,2.27
2019-05-03T13:17:19.114Z,2.20
2019-05-03T13:19:51.200Z,2.20
2019-05-03T13:22:20.698Z,2.10
2019-05-03T13:24:50.078Z,1.77
2019-05-03T13:27:19.717Z,2.17
2019-05-03T13:29:49.080Z,2.20
2019-05-03T13:32:19.891Z,2.50
2019-05-03T13:34:49.264Z,1.87
2019-05-03T13:37:20.167Z,2.10
2019-05-03T13:39:49.606Z,2.30
2019-05-03T13:42:20.843Z,1.83
2019-05-03T13:44:50.768Z,1.90
2019-05-03T13:47:20.571Z,2.00
2019-05-03T13:49:49.993Z,2.00
2019-05-03T13:52:19.416Z,2.00
2019-05-03T13:54:50.619Z,1.80
2019-05-03T13:57:24.618Z,1.97
2019-05-03T13:59:55.442Z,2.20
2019-05-03T14:02:24.964Z,2.17
2019-05-03T14:04:55.834Z,2.00
2019-05-03T14:07:25.672Z,2.30
2019-05-03T14:09:55.673Z,2.47
2019-05-03T14:12:25.242Z,1.90
2019-05-03T14:14:55.874Z,2.17
2019-05-03T14:17:28.495Z,1.97
2019-05-03T14:20:19.613Z,1.70
2019-05-03T14:22:50.133Z,1.80
2019-05-03T14:25:19.481Z,1.93
2019-05-03T14:27:48.957Z,2.27
2019-05-03T14:30:19.619Z,2.63
2019-05-03T14:32:49.059Z,2.20
2019-05-03T14:35:19.471Z,2.30
2019-05-03T14:37:48.857Z,2.30
2019-05-03T14:40:18.212Z,1.70
2019-05-03T14:42:47.575Z,1.90
2019-05-03T14:45:17.331Z,2.13
2019-05-03T14:47:50.120Z,2.97
2019-05-03T14:50:20.740Z,2.70
2019-05-03T14:52:50.113Z,1.97
2019-05-03T14:55:41.533Z,2.03
2019-05-03T14:58:28.279Z,2.03
2019-05-03T15:01:04.788Z,3.10
2019-05-03T15:03:35.416Z,3.00
2019-05-03T15:06:05.295Z,2.50
2019-05-03T15:08:35.082Z,2.43
2019-05-03T15:11:05.824Z,2.70
2019-05-03T15:13:35.132Z,3.00
2019-05-03T15:16:05.271Z,2.70
2019-05-03T15:18:34.956Z,3.30
2019-05-03T15:21:09.663Z,2.37
2019-05-03T15:23:39.011Z,2.07
2019-05-03T15:26:08.666Z,2.57
2019-05-03T15:28:38.044Z,2.03
2019-05-03T15:31:07.465Z,2.50
2019-05-03T15:33:36.799Z,2.60
2019-05-03T15:36:09.794Z,2.60
2019-05-03T15:38:39.101Z,2.30
2019-05-03T15:41:09.871Z,2.40
2019-05-03T15:44:05.270Z,2.10
2019-05-03T15:46:45.018Z,2.40
2019-05-03T15:49:20.467Z,2.00
2019-05-03T15:51:54.029Z,2.00
2019-05-03T15:54:28.043Z,2.30
2019-05-03T15:56:57.612Z,1.93
2019-05-03T15:59:27.557Z,2.57
2019-05-03T16:02:00.032Z,2.03
2019-05-03T16:04:31.781Z,2.00
2019-05-03T16:07:02.255Z,2.10
2019-05-03T16:09:35.246Z,2.40
2019-05-03T16:12:05.477Z,2.50
2019-05-03T16:14:37.896Z,2.87
2019-05-03T16:17:07.312Z,2.57
2019-05-03T16:19:38.937Z,2.70
2019-05-03T16:22:08.385Z,3.23
2019-05-03T16:24:40.267Z,3.87
2019-05-03T16:27:18.672Z,3.80
2019-05-03T16:29:49.614Z,2.63
2019-05-03T16:32:19.161Z,2.40
2019-05-03T16:34:48.551Z,2.47
2019-05-03T16:37:22.045Z,3.10
2019-05-03T16:39:54.654Z,2.70
2019-05-03T16:42:24.566Z,2.43
2019-05-03T16:44:55.009Z,2.93
2019-05-03T16:47:25.015Z,3.00
2019-05-03T16:49:58.693Z,3.03
2019-05-03T16:52:25.738Z,2.33
2019-05-03T16:54:58.044Z,2.93
2019-05-03T16:57:29.059Z,2.30
2019-05-03T16:59:58.698Z,3.30
2019-05-03T17:02:28.073Z,3.10
2019-05-03T17:05:07.405Z,3.20
2019-05-03T17:07:45.192Z,2.93
2019-05-03T17:10:34.828Z,2.70
2019-05-03T17:13:05.533Z,2.63
2019-05-03T17:15:35.370Z,3.37
2019-05-03T17:18:06.556Z,3.37
2019-05-03T17:20:37.933Z,3.10
2019-05-03T17:23:07.273Z,3.00
2019-05-03T17:25:39.154Z,2.73
2019-05-03T17:28:09.444Z,2.73
2019-05-03T17:30:38.876Z,3.00
2019-05-03T17:33:08.330Z,3.07
2019-05-03T17:35:37.759Z,3.40
2019-05-03T17:41:16.822Z,3.07
2019-05-03T17:44:16.292Z,3.47
2019-05-03T17:46:56.855Z,2.77
2019-05-03T17:49:37.719Z,2.80
2019-05-03T17:52:40.412Z,3.37
2019-05-03T17:55:40.440Z,3.27
2019-05-03T17:58:40.616Z,3.50
2019-05-03T18:01:40.815Z,3.07
2019-05-03T18:10:28.051Z,3.27
2019-05-03T18:13:11.857Z,3.53
2019-05-03T18:15:54.367Z,2.77
2019-05-03T18:18:35.768Z,2.80
2019-05-03T18:21:18.799Z,2.90
2019-05-03T18:24:00.112Z,3.50
2019-05-03T18:26:41.729Z,3.33
2019-05-03T18:29:25.135Z,3.13
2019-05-03T18:32:05.868Z,4.67
2019-05-03T18:34:47.201Z,3.73
2019-05-03T18:37:27.835Z,3.40
2019-05-03T18:40:11.226Z,2.87
2019-05-03T18:42:55.466Z,2.70
2019-05-03T18:48:41.435Z,3.10
2019-05-03T18:51:22.872Z,2.87
2019-05-03T18:54:07.046Z,4.13
2019-05-03T18:56:46.829Z,2.93
2019-05-03T18:59:28.836Z,2.77
2019-05-03T19:02:09.982Z,3.20
2019-05-03T19:04:54.604Z,3.20
2019-05-03T19:07:58.234Z,2.93
2019-05-03T19:10:44.671Z,2.97
2019-05-03T19:13:29.157Z,3.07
2019-05-03T19:16:29.307Z,2.60
2019-05-03T19:19:10.627Z,2.93
2019-05-03T19:21:52.729Z,3.17
2019-05-03T19:24:35.104Z,3.20
2019-05-03T19:27:16.234Z,3.57
2019-05-03T19:29:56.888Z,3.10
2019-05-03T19:32:38.311Z,3.27
2019-05-03T19:35:21.267Z,3.73
2019-05-03T19:38:02.393Z,3.47
2019-05-03T19:40:45.327Z,3.47
2019-05-03T19:43:27.103Z,3.57
2019-05-03T19:46:10.537Z,3.80
2019-05-03T19:48:51.655Z,3.37
2019-05-03T19:51:34.437Z,3.67
2019-05-03T19:54:15.081Z,3.93
2019-05-03T19:56:57.326Z,3.57
2019-05-03T19:59:57.100Z,3.80
2019-05-03T20:05:56.673Z,3.93
2019-05-03T20:08:40.651Z,4.20
2019-05-03T20:11:22.123Z,4.20
2019-05-03T20:14:04.743Z,4.67
2019-05-03T20:16:46.185Z,4.30
2019-05-03T20:19:27.596Z,4.53
2019-05-03T20:22:09.304Z,4.80
2019-05-03T20:24:50.988Z,4.80
2019-05-03T20:27:32.181Z,4.77
2019-05-03T20:30:15.007Z,5.10
2019-05-03T20:32:57.194Z,4.97
2019-05-03T20:35:38.145Z,5.07
2019-05-03T20:38:28.376Z,5.33
2019-05-03T20:41:09.414Z,5.23
2019-05-03T20:44:14.381Z,5.23
2019-05-03T20:47:04.434Z,5.43
2019-05-03T20:49:47.890Z,5.33
2019-05-03T20:52:30.169Z,4.90
2019-05-03T20:55:11.651Z,4.80
2019-05-03T20:57:52.268Z,5.10
2019-05-03T21:00:34.492Z,6.33
2019-05-03T21:03:15.627Z,5.57
2019-05-03T21:06:02.347Z,5.87
2019-05-03T21:08:50.520Z,5.77
2019-05-03T21:11:25.606Z,6.50
2019-05-03T21:14:17.499Z,5.90
2019-05-03T21:17:04.591Z,5.90
2019-05-03T21:22:59.372Z,5.60
2019-05-03T21:26:03.664Z,5.90
2019-05-03T21:28:29.256Z,5.60
2019-05-03T21:31:11.144Z,5.77
2019-05-03T21:33:52.417Z,5.27
2019-05-03T21:36:34.875Z,4.53
2019-05-03T21:39:15.733Z,4.33
2019-05-03T21:41:58.866Z,4.10
2019-05-03T21:44:40.488Z,4.60
2019-05-03T21:47:41.037Z,4.43
2019-05-03T21:50:24.866Z,4.10
2019-05-03T21:53:06.326Z,4.37
2019-05-03T21:55:48.064Z,4.23
2019-05-03T21:58:31.424Z,4.30
2019-05-03T22:01:15.514Z,4.40
2019-05-03T22:03:57.212Z,4.83
2019-05-03T22:06:38.059Z,5.17
2019-05-03T22:09:18.769Z,5.37
2019-05-03T22:12:00.339Z,5.20
2019-05-03T22:14:47.098Z,5.03
2019-05-03T22:17:35.478Z,4.77
2019-05-03T22:21:01.873Z,4.17
2019-05-03T22:24:09.663Z,4.83
2019-05-03T22:29:59.585Z,4.83
2019-05-03T22:32:48.807Z,5.50
2019-05-03T22:35:37.269Z,5.47
2019-05-03T22:41:21.107Z,5.67
2019-05-03T22:44:09.524Z,8.23
2019-05-03T22:46:57.912Z,6.70
2019-05-03T22:49:46.369Z,5.57
2019-05-03T22:55:28.736Z,7.30
2019-05-03T23:01:30.196Z,6.87
2019-05-03T23:04:18.600Z,8.20
2019-05-03T23:07:07.043Z,8.67
2019-05-03T23:13:24.751Z,8.23
2019-05-03T23:16:14.425Z,8.17
2019-05-03T23:18:56.204Z,8.23
2019-05-03T23:21:56.762Z,8.27
2019-05-03T23:24:38.214Z,8.67
2019-05-03T23:27:18.740Z,8.67
2019-05-03T23:29:59.488Z,8.90
2019-05-03T23:32:40.807Z,7.70
2019-05-03T23:35:21.420Z,8.27
2019-05-03T23:38:07.355Z,8.70
2019-05-03T23:40:45.370Z,9.33
2019-05-03T23:43:26.103Z,8.23
2019-05-03T23:46:06.746Z,9.00
2019-05-03T23:48:51.056Z,8.50
2019-05-03T23:54:54.896Z,7.67
2019-05-03T23:57:38.138Z,8.23
